sensor_id;sensor_type;location;lat;lon;timestamp;P1;durP1;ratioP1;P2;durP2;ratioP2
67164;SDS011;54093;50.014;19.984;2022-12-07T00:05:59;5.32;;;4.75;;
67164;SDS011;54093;50.014;19.984;2022-12-07T00:15:20;4.82;;;4.45;;
67164;SDS011;54093;50.014;19.984;2022-12-07T00:24:41;4.57;;;4.20;;
67164;SDS011;54093;50.014;19.984;2022-12-07T00:34:02;5.07;;;4.68;;
67164;SDS011;54093;50.014;19.984;2022-12-07T00:43:23;5.78;;;5.18;;
67164;SDS011;54093;50.014;19.984;2022-12-07T00:52:44;7.25;;;5.65;;
67164;SDS011;54093;50.014;19.984;2022-12-07T01:02:04;4.70;;;4.30;;
67164;SDS011;54093;50.014;19.984;2022-12-07T01:11:26;6.40;;;5.63;;
67164;SDS011;54093;50.014;19.984;2022-12-07T01:30:23;4.70;;;4.30;;
67164;SDS011;54093;50.014;19.984;2022-12-07T01:39:44;5.63;;;5.22;;
67164;SDS011;54093;50.014;19.984;2022-12-07T01:49:06;5.30;;;4.80;;
67164;SDS011;54093;50.014;19.984;2022-12-07T01:58:34;5.32;;;4.80;;
67164;SDS011;54093;50.014;19.984;2022-12-07T02:07:56;6.20;;;5.43;;
67164;SDS011;54093;50.014;19.984;2022-12-07T02:17:24;4.78;;;4.38;;
67164;SDS011;54093;50.014;19.984;2022-12-07T02:36:30;5.22;;;4.28;;
67164;SDS011;54093;50.014;19.984;2022-12-07T02:45:56;11.88;;;5.43;;
67164;SDS011;54093;50.014;19.984;2022-12-07T02:55:23;8.30;;;6.00;;
67164;SDS011;54093;50.014;19.984;2022-12-07T03:14:35;5.70;;;5.20;;
67164;SDS011;54093;50.014;19.984;2022-12-07T03:24:03;8.63;;;7.30;;
67164;SDS011;54093;50.014;19.984;2022-12-07T03:33:30;6.80;;;5.93;;
67164;SDS011;54093;50.014;19.984;2022-12-07T03:42:57;8.15;;;7.35;;
67164;SDS011;54093;50.014;19.984;2022-12-07T03:52:32;6.18;;;5.70;;
67164;SDS011;54093;50.014;19.984;2022-12-07T04:02:01;8.00;;;6.68;;
67164;SDS011;54093;50.014;19.984;2022-12-07T04:11:23;7.93;;;7.13;;
67164;SDS011;54093;50.014;19.984;2022-12-07T04:20:45;11.43;;;5.88;;
67164;SDS011;54093;50.014;19.984;2022-12-07T04:30:06;7.22;;;6.28;;
67164;SDS011;54093;50.014;19.984;2022-12-07T04:39:28;6.75;;;6.07;;
67164;SDS011;54093;50.014;19.984;2022-12-07T04:48:51;5.88;;;5.47;;
67164;SDS011;54093;50.014;19.984;2022-12-07T04:58:13;7.72;;;5.85;;
67164;SDS011;54093;50.014;19.984;2022-12-07T05:07:34;6.03;;;5.40;;
67164;SDS011;54093;50.014;19.984;2022-12-07T05:16:55;6.20;;;5.65;;
67164;SDS011;54093;50.014;19.984;2022-12-07T05:26:16;5.32;;;4.90;;
67164;SDS011;54093;50.014;19.984;2022-12-07T05:35:36;5.30;;;4.72;;
67164;SDS011;54093;50.014;19.984;2022-12-07T05:44:58;5.72;;;5.13;;
67164;SDS011;54093;50.014;19.984;2022-12-07T05:54:19;5.90;;;5.32;;
67164;SDS011;54093;50.014;19.984;2022-12-07T06:03:40;6.63;;;5.90;;
67164;SDS011;54093;50.014;19.984;2022-12-07T06:13:00;6.28;;;4.80;;
67164;SDS011;54093;50.014;19.984;2022-12-07T06:22:21;3.35;;;3.13;;
67164;SDS011;54093;50.014;19.984;2022-12-07T06:31:42;5.30;;;3.88;;
67164;SDS011;54093;50.014;19.984;2022-12-07T06:41:03;4.65;;;4.35;;
67164;SDS011;54093;50.014;19.984;2022-12-07T06:50:24;4.85;;;4.38;;
67164;SDS011;54093;50.014;19.984;2022-12-07T06:59:45;4.60;;;4.25;;
67164;SDS011;54093;50.014;19.984;2022-12-07T07:09:06;4.93;;;4.63;;
67164;SDS011;54093;50.014;19.984;2022-12-07T07:18:27;5.05;;;4.65;;
67164;SDS011;54093;50.014;19.984;2022-12-07T07:27:48;4.93;;;4.60;;
67164;SDS011;54093;50.014;19.984;2022-12-07T07:37:09;6.18;;;5.45;;
67164;SDS011;54093;50.014;19.984;2022-12-07T07:46:31;5.47;;;4.97;;
67164;SDS011;54093;50.014;19.984;2022-12-07T07:55:53;6.05;;;5.65;;
67164;SDS011;54093;50.014;19.984;2022-12-07T08:05:15;8.55;;;7.78;;
67164;SDS011;54093;50.014;19.984;2022-12-07T08:14:36;5.72;;;5.30;;
67164;SDS011;54093;50.014;19.984;2022-12-07T08:23:57;4.93;;;4.55;;
67164;SDS011;54093;50.014;19.984;2022-12-07T08:33:18;5.47;;;5.03;;
67164;SDS011;54093;50.014;19.984;2022-12-07T08:42:40;9.75;;;7.43;;
67164;SDS011;54093;50.014;19.984;2022-12-07T08:52:08;6.80;;;5.88;;
67164;SDS011;54093;50.014;19.984;2022-12-07T09:01:29;8.27;;;6.95;;
67164;SDS011;54093;50.014;19.984;2022-12-07T09:10:50;11.00;;;9.95;;
67164;SDS011;54093;50.014;19.984;2022-12-07T09:20:11;7.85;;;7.07;;
67164;SDS011;54093;50.014;19.984;2022-12-07T09:29:33;8.65;;;7.05;;
67164;SDS011;54093;50.014;19.984;2022-12-07T09:38:53;7.65;;;5.93;;
67164;SDS011;54093;50.014;19.984;2022-12-07T09:48:18;5.78;;;5.28;;
67164;SDS011;54093;50.014;19.984;2022-12-07T09:57:46;6.43;;;5.82;;
67164;SDS011;54093;50.014;19.984;2022-12-07T10:07:06;5.03;;;4.55;;
67164;SDS011;54093;50.014;19.984;2022-12-07T10:16:31;5.68;;;5.28;;
67164;SDS011;54093;50.014;19.984;2022-12-07T10:25:59;9.15;;;5.65;;
67164;SDS011;54093;50.014;19.984;2022-12-07T10:35:43;5.30;;;5.00;;
67164;SDS011;54093;50.014;19.984;2022-12-07T10:45:08;5.40;;;4.90;;
67164;SDS011;54093;50.014;19.984;2022-12-07T11:05:11;5.18;;;4.68;;
67164;SDS011;54093;50.014;19.984;2022-12-07T11:33:46;4.22;;;3.92;;
67164;SDS011;54093;50.014;19.984;2022-12-07T11:43:22;5.50;;;5.10;;
67164;SDS011;54093;50.014;19.984;2022-12-07T11:52:50;4.93;;;4.53;;
67164;SDS011;54093;50.014;19.984;2022-12-07T12:02:15;4.43;;;4.13;;
67164;SDS011;54093;50.014;19.984;2022-12-07T12:12:01;5.40;;;5.00;;
67164;SDS011;54093;50.014;19.984;2022-12-07T12:22:26;2.83;;;2.63;;
67164;SDS011;54093;50.014;19.984;2022-12-07T12:31:40;3.60;;;3.15;;
67164;SDS011;54093;50.014;19.984;2022-12-07T12:41:02;3.10;;;2.90;;
67164;SDS011;54093;50.014;19.984;2022-12-07T12:50:25;3.03;;;2.83;;
67164;SDS011;54093;50.014;19.984;2022-12-07T13:09:20;3.10;;;2.83;;
67164;SDS011;54093;50.014;19.984;2022-12-07T13:18:47;2.30;;;2.20;;
67164;SDS011;54093;50.014;19.984;2022-12-07T13:28:15;2.42;;;2.33;;
67164;SDS011;54093;50.014;19.984;2022-12-07T13:37:38;2.75;;;2.65;;
67164;SDS011;54093;50.014;19.984;2022-12-07T13:56:36;3.08;;;2.88;;
67164;SDS011;54093;50.014;19.984;2022-12-07T14:06:11;2.63;;;2.30;;
67164;SDS011;54093;50.014;19.984;2022-12-07T14:15:36;2.78;;;2.58;;
67164;SDS011;54093;50.014;19.984;2022-12-07T14:25:01;3.67;;;2.85;;
67164;SDS011;54093;50.014;19.984;2022-12-07T14:34:29;4.30;;;3.20;;
67164;SDS011;54093;50.014;19.984;2022-12-07T14:43:50;5.13;;;3.85;;
67164;SDS011;54093;50.014;19.984;2022-12-07T14:53:13;6.70;;;3.47;;
67164;SDS011;54093;50.014;19.984;2022-12-07T15:02:35;3.17;;;2.83;;
67164;SDS011;54093;50.014;19.984;2022-12-07T15:11:56;10.40;;;3.40;;
67164;SDS011;54093;50.014;19.984;2022-12-07T15:21:17;4.30;;;3.33;;
67164;SDS011;54093;50.014;19.984;2022-12-07T15:30:38;4.25;;;3.60;;
67164;SDS011;54093;50.014;19.984;2022-12-07T15:40:03;5.10;;;4.70;;
67164;SDS011;54093;50.014;19.984;2022-12-07T15:49:25;3.85;;;3.55;;
67164;SDS011;54093;50.014;19.984;2022-12-07T15:58:47;5.53;;;3.83;;
67164;SDS011;54093;50.014;19.984;2022-12-07T16:08:08;4.80;;;4.40;;
67164;SDS011;54093;50.014;19.984;2022-12-07T16:17:28;4.78;;;4.38;;
67164;SDS011;54093;50.014;19.984;2022-12-07T16:26:49;8.63;;;4.90;;
67164;SDS011;54093;50.014;19.984;2022-12-07T16:36:11;6.70;;;5.88;;
67164;SDS011;54093;50.014;19.984;2022-12-07T16:45:36;7.32;;;6.43;;
67164;SDS011;54093;50.014;19.984;2022-12-07T16:54:57;7.40;;;5.97;;
67164;SDS011;54093;50.014;19.984;2022-12-07T17:04:17;6.75;;;5.72;;
67164;SDS011;54093;50.014;19.984;2022-12-07T17:13:39;8.63;;;5.82;;
67164;SDS011;54093;50.014;19.984;2022-12-07T17:23:19;5.38;;;4.82;;
67164;SDS011;54093;50.014;19.984;2022-12-07T17:32:40;4.03;;;3.67;;
67164;SDS011;54093;50.014;19.984;2022-12-07T17:42:01;4.38;;;4.07;;
67164;SDS011;54093;50.014;19.984;2022-12-07T17:51:40;3.65;;;3.35;;
67164;SDS011;54093;50.014;19.984;2022-12-07T18:01:20;5.07;;;4.57;;
67164;SDS011;54093;50.014;19.984;2022-12-07T18:10:41;4.25;;;3.90;;
67164;SDS011;54093;50.014;19.984;2022-12-07T18:20:02;6.85;;;4.28;;
67164;SDS011;54093;50.014;19.984;2022-12-07T18:29:23;9.68;;;6.32;;
67164;SDS011;54093;50.014;19.984;2022-12-07T18:38:44;6.35;;;5.60;;
67164;SDS011;54093;50.014;19.984;2022-12-07T18:48:06;3.67;;;3.45;;
67164;SDS011;54093;50.014;19.984;2022-12-07T18:57:30;3.25;;;3.05;;
67164;SDS011;54093;50.014;19.984;2022-12-07T19:06:52;5.57;;;4.85;;
67164;SDS011;54093;50.014;19.984;2022-12-07T19:16:14;5.15;;;4.45;;
67164;SDS011;54093;50.014;19.984;2022-12-07T19:25:35;6.00;;;4.88;;
67164;SDS011;54093;50.014;19.984;2022-12-07T19:34:55;8.15;;;5.53;;
67164;SDS011;54093;50.014;19.984;2022-12-07T19:44:20;7.13;;;4.75;;
67164;SDS011;54093;50.014;19.984;2022-12-07T19:53:44;6.80;;;4.93;;
67164;SDS011;54093;50.014;19.984;2022-12-07T20:03:05;5.35;;;4.53;;
67164;SDS011;54093;50.014;19.984;2022-12-07T20:12:27;6.88;;;4.40;;
67164;SDS011;54093;50.014;19.984;2022-12-07T20:22:06;7.43;;;5.68;;
67164;SDS011;54093;50.014;19.984;2022-12-07T20:31:27;5.85;;;4.78;;
67164;SDS011;54093;50.014;19.984;2022-12-07T20:40:48;7.20;;;5.45;;
67164;SDS011;54093;50.014;19.984;2022-12-07T20:50:09;9.27;;;4.05;;
67164;SDS011;54093;50.014;19.984;2022-12-07T20:59:30;3.83;;;3.55;;
67164;SDS011;54093;50.014;19.984;2022-12-07T21:08:52;5.18;;;3.92;;
67164;SDS011;54093;50.014;19.984;2022-12-07T21:18:15;2.97;;;2.78;;
67164;SDS011;54093;50.014;19.984;2022-12-07T21:27:36;3.08;;;2.88;;
67164;SDS011;54093;50.014;19.984;2022-12-07T21:36:57;2.45;;;2.35;;
67164;SDS011;54093;50.014;19.984;2022-12-07T21:46:18;3.97;;;2.72;;
67164;SDS011;54093;50.014;19.984;2022-12-07T21:55:40;5.85;;;2.47;;
67164;SDS011;54093;50.014;19.984;2022-12-07T22:05:02;5.28;;;2.78;;
67164;SDS011;54093;50.014;19.984;2022-12-07T22:14:22;5.03;;;2.75;;
67164;SDS011;54093;50.014;19.984;2022-12-07T22:24:02;2.13;;;2.03;;
67164;SDS011;54093;50.014;19.984;2022-12-07T22:33:24;2.60;;;2.40;;
67164;SDS011;54093;50.014;19.984;2022-12-07T22:42:44;2.45;;;1.83;;
67164;SDS011;54093;50.014;19.984;2022-12-07T22:52:05;3.22;;;2.05;;
67164;SDS011;54093;50.014;19.984;2022-12-07T23:01:26;2.08;;;1.98;;
67164;SDS011;54093;50.014;19.984;2022-12-07T23:10:47;1.80;;;1.70;;
67164;SDS011;54093;50.014;19.984;2022-12-07T23:20:08;4.13;;;2.15;;
67164;SDS011;54093;50.014;19.984;2022-12-07T23:29:30;4.18;;;2.45;;
67164;SDS011;54093;50.014;19.984;2022-12-07T23:38:51;2.33;;;2.10;;
67164;SDS011;54093;50.014;19.984;2022-12-07T23:48:13;2.58;;;2.38;;
67164;SDS011;54093;50.014;19.984;2022-12-07T23:57:34;2.42;;;2.22;;
